Time;durP1;ratioP1;P1;durP2;ratioP2;P2;SDS_P1;SDS_P2;PMS_P1;PMS_P2;Temp;Humidity;BMP_temperature;BMP_pressure;BME280_temperature;BME280_humidity;BME280_pressure;Samples;Min_cycle;Max_cycle;Signal;HPM_P1;HPM_P2
2021/06/12 00:01:17;;;;;;;;;;;18.10;75.80;;;;;;4976690;28;87169;-50
2021/06/12 00:03:43;;;;;;;;;;;18.10;75.90;;;;;;4978140;28;87861;-49
2021/06/12 00:06:08;;;;;;;;;;;18.10;75.90;;;;;;4979747;28;87288;-49
2021/06/12 00:08:34;;;;;;;;;;;18.10;75.90;;;;;;4980345;28;87868;-48
2021/06/12 00:11:01;;;;;;;;;;;18.10;75.80;;;;;;4980167;28;87651;-49
2021/06/12 00:13:27;;;;;;;;;;;18.10;75.80;;;;;;4980290;28;86382;-49
2021/06/12 00:15:52;;;;;;;;;;;18.10;75.90;;;;;;4980365;28;87169;-49
2021/06/12 00:18:18;;;;;;;;;;;18.00;75.80;;;;;;4983921;28;87550;-49
2021/06/12 00:20:43;;;;;;;;;;;18.00;75.90;;;;;;4979031;28;88966;-48
2021/06/12 00:23:09;;;;;;;;;;;18.00;75.90;;;;;;4977586;28;88753;-50
2021/06/12 00:25:38;;;;;;;;;;;18.00;75.90;;;;;;4978155;28;87155;-49
2021/06/12 00:28:03;;;;;;;;;;;18.00;75.90;;;;;;4980711;28;88882;-49
2021/06/12 00:30:29;;;;;;;;;;;18.00;75.90;;;;;;4979509;28;88127;-49
2021/06/12 00:32:55;;;;;;;;;;;18.00;75.90;;;;;;4978720;28;87198;-49
2021/06/12 00:35:21;;;;;;;;;;;18.00;75.90;;;;;;4979294;28;87873;-49
2021/06/12 00:37:46;;;;;;;;;;;17.90;75.80;;;;;;4980052;28;87658;-50
2021/06/12 00:40:13;;;;;;;;;;;17.90;75.80;;;;;;4983804;28;87154;-49
2021/06/12 00:42:39;;;;;;;;;;;17.90;75.80;;;;;;4980001;28;89717;-50
2021/06/12 00:45:06;;;;;;;;;;;17.90;75.90;;;;;;4979836;28;88152;-49
2021/06/12 00:47:32;;;;;;;;;;;17.90;75.70;;;;;;4980133;28;89708;-48
2021/06/12 00:49:57;;;;;;;;;;;17.90;75.80;;;;;;4980753;28;89467;-49
2021/06/12 00:52:23;;;;;;;;;;;17.80;75.80;;;;;;4980815;28;87152;-49
2021/06/12 00:54:49;;;;;;;;;;;17.80;75.80;;;;;;4980004;28;87137;-49
2021/06/12 00:57:15;;;;;;;;;;;17.90;75.80;;;;;;4978582;28;87719;-49
2021/06/12 00:59:41;;;;;;;;;;;17.90;75.80;;;;;;4981575;28;87200;-49
2021/06/12 01:02:06;;;;;;;;;;;17.80;75.80;;;;;;4979583;28;87268;-49
2021/06/12 01:04:32;;;;;;;;;;;17.80;75.80;;;;;;4980239;28;87117;-49
2021/06/12 01:06:57;;;;;;;;;;;17.80;75.80;;;;;;4981011;28;87794;-50
2021/06/12 01:09:23;;;;;;;;;;;17.80;75.80;;;;;;4980410;28;88577;-49
2021/06/12 01:11:58;;;;;;;;;;;17.80;75.80;;;;;;4978230;28;88680;-49
2021/06/12 01:14:25;;;;;;;;;;;17.80;75.80;;;;;;4977887;28;87127;-49
2021/06/12 01:17:01;;;;;;;;;;;17.70;75.70;;;;;;4976520;28;88504;-49
2021/06/12 01:19:45;;;;;;;;;;;17.70;75.70;;;;;;4977139;28;87228;-48
2021/06/12 01:22:20;;;;;;;;;;;17.70;75.70;;;;;;4982862;28;89044;-49
2021/06/12 01:25:04;;;;;;;;;;;17.70;75.80;;;;;;4977398;28;87997;-50
2021/06/12 01:27:30;;;;;;;;;;;17.70;75.80;;;;;;4978570;28;87783;-48
2021/06/12 01:30:04;;;;;;;;;;;17.70;75.80;;;;;;4979116;28;88286;-50
2021/06/12 01:32:31;;;;;;;;;;;17.70;75.80;;;;;;4978299;28;87551;-49
2021/06/12 01:34:58;;;;;;;;;;;17.70;75.80;;;;;;4978548;28;89562;-50
2021/06/12 01:37:24;;;;;;;;;;;17.70;75.70;;;;;;4979705;28;89256;-50
2021/06/12 01:39:50;;;;;;;;;;;17.60;75.70;;;;;;4980462;28;88702;-49
2021/06/12 01:42:18;;;;;;;;;;;17.60;75.70;;;;;;4980653;28;87152;-49
2021/06/12 01:44:44;;;;;;;;;;;17.60;75.70;;;;;;4981376;28;87906;-49
2021/06/12 01:47:10;;;;;;;;;;;17.60;75.60;;;;;;4979571;28;87327;-48
2021/06/12 01:49:36;;;;;;;;;;;17.60;75.70;;;;;;4979997;28;88035;-50
2021/06/12 01:52:02;;;;;;;;;;;17.60;75.60;;;;;;4981158;28;86480;-49
2021/06/12 01:54:28;;;;;;;;;;;17.60;75.60;;;;;;4980902;28;88523;-49
2021/06/12 01:56:54;;;;;;;;;;;17.60;75.70;;;;;;4978826;28;87129;-49
2021/06/12 01:59:20;;;;;;;;;;;17.50;75.60;;;;;;4978890;28;88085;-50
2021/06/12 02:01:48;;;;;;;;;;;17.50;75.60;;;;;;4979539;28;88472;-48
2021/06/12 02:04:16;;;;;;;;;;;17.50;75.70;;;;;;4977297;28;89879;-49
2021/06/12 02:06:42;;;;;;;;;;;17.50;75.60;;;;;;4979739;28;87194;-49
2021/06/12 02:09:08;;;;;;;;;;;17.50;75.60;;;;;;4975662;28;88869;-50
2021/06/12 02:11:34;;;;;;;;;;;17.50;75.70;;;;;;4977090;28;87120;-48
2021/06/12 02:13:59;;;;;;;;;;;17.50;75.70;;;;;;4978019;28;87177;-51
2021/06/12 02:16:26;;;;;;;;;;;17.50;75.60;;;;;;4978071;28;86542;-49
2021/06/12 02:18:53;;;;;;;;;;;17.50;75.60;;;;;;4976701;28;87157;-49
2021/06/12 02:21:22;;;;;;;;;;;17.40;75.60;;;;;;4977088;28;87476;-48
2021/06/12 02:23:49;;;;;;;;;;;17.40;75.50;;;;;;4980997;28;89058;-49
2021/06/12 02:26:15;;;;;;;;;;;17.40;75.50;;;;;;4982953;28;87193;-50
2021/06/12 02:28:42;;;;;;;;;;;17.40;75.50;;;;;;4984065;28;88599;-49
2021/06/12 02:31:11;;;;;;;;;;;17.40;75.50;;;;;;4979971;28;87213;-50
2021/06/12 02:33:36;;;;;;;;;;;17.40;75.50;;;;;;4982246;28;87809;-49
2021/06/12 02:36:03;;;;;;;;;;;17.30;75.40;;;;;;4981360;28;87654;-49
2021/06/12 02:38:29;;;;;;;;;;;17.30;75.40;;;;;;4981861;28;87194;-50
2021/06/12 02:40:56;;;;;;;;;;;17.30;75.40;;;;;;4982367;28;87967;-49
2021/06/12 02:43:21;;;;;;;;;;;17.30;75.40;;;;;;4980872;28;87726;-49
2021/06/12 02:45:47;;;;;;;;;;;17.30;75.50;;;;;;4981355;28;87162;-49
2021/06/12 02:48:14;;;;;;;;;;;17.30;75.50;;;;;;4981745;28;88475;-49
2021/06/12 02:50:40;;;;;;;;;;;17.30;75.60;;;;;;4983641;28;88174;-50
2021/06/12 02:53:07;;;;;;;;;;;17.20;75.40;;;;;;4980738;28;88490;-49
2021/06/12 02:55:35;;;;;;;;;;;17.20;75.50;;;;;;4980233;28;88136;-49
2021/06/12 02:58:01;;;;;;;;;;;17.30;75.40;;;;;;4980572;28;87618;-50
2021/06/12 03:00:27;;;;;;;;;;;17.20;75.40;;;;;;4979642;28;88633;-49
2021/06/12 03:02:54;;;;;;;;;;;17.20;75.50;;;;;;4978279;28;89260;-49
2021/06/12 03:05:30;;;;;;;;;;;17.20;75.50;;;;;;4979201;28;87976;-50
2021/06/12 03:07:56;;;;;;;;;;;17.20;75.40;;;;;;4979374;28;87228;-50
2021/06/12 03:10:23;;;;;;;;;;;17.20;75.50;;;;;;4982272;28;87804;-51
2021/06/12 03:12:49;;;;;;;;;;;17.20;75.40;;;;;;4979630;28;89023;-49
2021/06/12 03:15:15;;;;;;;;;;;17.20;75.40;;;;;;4979714;28;89477;-49
2021/06/12 03:17:42;;;;;;;;;;;17.10;75.40;;;;;;4978655;28;87145;-49
2021/06/12 03:20:10;;;;;;;;;;;17.10;75.20;;;;;;4980687;28;88034;-49
2021/06/12 03:22:36;;;;;;;;;;;17.10;75.30;;;;;;4982329;28;87673;-53
2021/06/12 03:25:03;;;;;;;;;;;17.10;75.50;;;;;;4982134;28;87126;-50
2021/06/12 03:27:29;;;;;;;;;;;17.10;75.30;;;;;;4981156;28;87538;-48
2021/06/12 03:29:55;;;;;;;;;;;17.10;75.40;;;;;;4981819;28;86962;-49
2021/06/12 03:32:20;;;;;;;;;;;17.10;75.40;;;;;;4985120;28;87157;-51
2021/06/12 03:34:46;;;;;;;;;;;17.10;75.50;;;;;;4980961;28;87859;-49
2021/06/12 03:37:12;;;;;;;;;;;17.00;75.40;;;;;;4978731;28;89064;-48
2021/06/12 03:39:37;;;;;;;;;;;17.00;75.50;;;;;;4978739;28;89747;-49
2021/06/12 03:42:04;;;;;;;;;;;17.00;75.40;;;;;;4978206;28;88612;-49
2021/06/12 03:44:30;;;;;;;;;;;17.00;75.30;;;;;;4978239;28;87168;-48
2021/06/12 03:46:55;;;;;;;;;;;17.00;75.40;;;;;;4979030;28;88638;-49
2021/06/12 03:49:21;;;;;;;;;;;17.00;75.30;;;;;;4979596;28;88191;-49
2021/06/12 03:51:47;;;;;;;;;;;17.00;75.50;;;;;;4980453;28;87212;-48
2021/06/12 03:54:13;;;;;;;;;;;17.00;75.30;;;;;;4982993;28;88868;-49
2021/06/12 03:56:39;;;;;;;;;;;17.00;75.40;;;;;;4980088;28;87187;-49
2021/06/12 03:59:08;;;;;;;;;;;16.90;75.40;;;;;;4979914;28;87575;-48
2021/06/12 04:01:34;;;;;;;;;;;17.00;75.50;;;;;;4980919;28;88566;-49
2021/06/12 04:04:00;;;;;;;;;;;16.90;75.30;;;;;;4980282;28;87152;-50
2021/06/12 04:06:25;;;;;;;;;;;16.90;75.40;;;;;;4979710;28;87126;-50
2021/06/12 04:08:51;;;;;;;;;;;16.90;75.50;;;;;;4980130;28;88405;-49
2021/06/12 04:11:17;;;;;;;;;;;16.90;75.50;;;;;;4981469;28;87145;-51
2021/06/12 04:13:42;;;;;;;;;;;16.90;75.40;;;;;;4982039;28;87169;-49
2021/06/12 04:16:08;;;;;;;;;;;16.90;75.40;;;;;;4984072;28;90305;-49
2021/06/12 04:18:34;;;;;;;;;;;16.90;75.40;;;;;;4980170;28;88957;-49
2021/06/12 04:21:00;;;;;;;;;;;16.80;75.50;;;;;;4977271;28;88055;-48
2021/06/12 04:23:25;;;;;;;;;;;16.80;75.50;;;;;;4977282;28;87135;-49
2021/06/12 04:25:51;;;;;;;;;;;16.90;75.60;;;;;;4977087;28;88610;-49
2021/06/12 04:28:16;;;;;;;;;;;16.80;75.50;;;;;;4977818;28;88555;-49
2021/06/12 04:30:42;;;;;;;;;;;16.80;75.50;;;;;;4979383;28;87115;-48
2021/06/12 04:33:07;;;;;;;;;;;16.80;75.50;;;;;;4980457;28;87255;-50
2021/06/12 04:35:33;;;;;;;;;;;16.80;75.50;;;;;;4980989;28;88502;-50
2021/06/12 04:37:59;;;;;;;;;;;16.80;75.60;;;;;;4983734;28;88890;-50
2021/06/12 04:40:26;;;;;;;;;;;16.80;75.60;;;;;;4979012;28;90086;-48
2021/06/12 04:42:52;;;;;;;;;;;16.80;75.60;;;;;;4981252;28;88045;-48
2021/06/12 04:45:17;;;;;;;;;;;16.80;75.70;;;;;;4981498;28;88816;-50
2021/06/12 04:47:43;;;;;;;;;;;16.80;75.70;;;;;;4980068;28;88051;-49
2021/06/12 04:50:10;;;;;;;;;;;16.70;75.60;;;;;;4977379;28;89248;-49
2021/06/12 04:52:36;;;;;;;;;;;16.80;75.60;;;;;;4981187;28;89421;-48
2021/06/12 04:55:03;;;;;;;;;;;16.80;75.70;;;;;;4980449;28;87790;-49
2021/06/12 04:57:28;;;;;;;;;;;16.70;75.60;;;;;;4980630;28;87243;-51
2021/06/12 04:59:54;;;;;;;;;;;16.80;75.70;;;;;;4982885;28;88798;-49
2021/06/12 05:02:19;;;;;;;;;;;16.80;75.70;;;;;;4977132;28;88737;-50
2021/06/12 05:04:45;;;;;;;;;;;16.80;75.80;;;;;;4977671;28;87593;-51
2021/06/12 05:07:10;;;;;;;;;;;16.80;75.80;;;;;;4977584;28;86771;-50
2021/06/12 05:09:36;;;;;;;;;;;16.70;75.70;;;;;;4977379;28;87164;-48
2021/06/12 05:12:02;;;;;;;;;;;16.70;75.70;;;;;;4978508;28;88597;-50
2021/06/12 05:14:27;;;;;;;;;;;16.70;75.70;;;;;;4978050;28;88572;-49
2021/06/12 05:16:53;;;;;;;;;;;16.70;75.90;;;;;;4980117;28;87180;-51
2021/06/12 05:19:19;;;;;;;;;;;16.70;76.00;;;;;;4983582;28;88915;-50
2021/06/12 05:21:45;;;;;;;;;;;16.70;75.90;;;;;;4981527;28;87267;-49
2021/06/12 05:24:11;;;;;;;;;;;16.70;76.00;;;;;;4979594;28;87919;-49
2021/06/12 05:26:37;;;;;;;;;;;16.70;76.00;;;;;;4980444;28;89421;-52
2021/06/12 05:29:02;;;;;;;;;;;16.70;76.00;;;;;;4979950;28;88127;-49
2021/06/12 05:31:28;;;;;;;;;;;16.70;76.10;;;;;;4977427;28;87266;-49
2021/06/12 05:33:53;;;;;;;;;;;16.70;76.10;;;;;;4975904;28;88261;-49
2021/06/12 05:36:19;;;;;;;;;;;16.70;76.10;;;;;;4977207;28;87216;-49
2021/06/12 05:38:44;;;;;;;;;;;16.70;76.30;;;;;;4977537;28;88264;-49
2021/06/12 05:41:10;;;;;;;;;;;16.70;76.20;;;;;;4980820;28;87509;-50
2021/06/12 05:43:36;;;;;;;;;;;16.60;76.20;;;;;;4979006;28;88539;-48
2021/06/12 05:46:02;;;;;;;;;;;16.70;76.30;;;;;;4979213;28;88233;-49
2021/06/12 05:48:28;;;;;;;;;;;16.70;76.20;;;;;;4979357;28;87262;-51
2021/06/12 05:50:53;;;;;;;;;;;16.70;76.20;;;;;;4979730;28;87609;-49
2021/06/12 05:53:19;;;;;;;;;;;16.70;76.30;;;;;;4979500;28;88196;-50
2021/06/12 05:55:44;;;;;;;;;;;16.70;76.40;;;;;;4980746;28;88029;-50
2021/06/12 05:58:10;;;;;;;;;;;16.60;76.20;;;;;;4977873;28;87332;-48
2021/06/12 06:00:36;;;;;;;;;;;16.60;76.40;;;;;;4979735;28;88186;-50
2021/06/12 06:03:01;;;;;;;;;;;16.60;76.40;;;;;;4983304;28;88227;-50
2021/06/12 06:05:27;;;;;;;;;;;16.60;76.50;;;;;;4981698;28;88174;-49
2021/06/12 06:07:52;;;;;;;;;;;16.60;76.50;;;;;;4982867;28;87203;-49
2021/06/12 06:10:18;;;;;;;;;;;16.60;76.50;;;;;;4983178;28;87158;-50
2021/06/12 06:12:43;;;;;;;;;;;16.60;76.50;;;;;;4983101;28;88887;-49
2021/06/12 06:15:11;;;;;;;;;;;16.60;76.60;;;;;;4980168;28;87147;-48
2021/06/12 06:17:37;;;;;;;;;;;16.60;76.70;;;;;;4982848;28;88896;-50
2021/06/12 06:20:03;;;;;;;;;;;16.60;76.60;;;;;;4983641;28;87381;-49
2021/06/12 06:22:29;;;;;;;;;;;16.60;76.70;;;;;;4983278;28;87190;-50
2021/06/12 06:24:54;;;;;;;;;;;16.60;76.80;;;;;;4984746;28;88914;-48
2021/06/12 06:27:20;;;;;;;;;;;16.60;76.80;;;;;;4978819;28;89891;-50
2021/06/12 06:29:46;;;;;;;;;;;16.60;76.80;;;;;;4979559;28;89957;-49
2021/06/12 06:32:11;;;;;;;;;;;16.60;76.70;;;;;;4979847;28;87138;-49
2021/06/12 06:34:37;;;;;;;;;;;16.70;76.70;;;;;;4981104;28;87135;-49
2021/06/12 06:37:02;;;;;;;;;;;16.60;76.70;;;;;;4982094;28;88952;-49
2021/06/12 06:39:28;;;;;;;;;;;16.60;76.70;;;;;;4982932;28;88140;-50
2021/06/12 06:41:53;;;;;;;;;;;16.60;76.70;;;;;;4981913;28;87753;-50
2021/06/12 06:44:19;;;;;;;;;;;16.70;76.80;;;;;;4979185;28;86996;-49
2021/06/12 06:46:45;;;;;;;;;;;16.60;77.30;;;;;;4981317;28;90180;-49
2021/06/12 06:49:11;;;;;;;;;;;16.70;76.90;;;;;;4979902;28;89089;-49
2021/06/12 06:51:36;;;;;;;;;;;16.70;76.90;;;;;;4979196;28;89182;-48
2021/06/12 06:54:02;;;;;;;;;;;16.70;76.90;;;;;;4981288;28;87127;-49
2021/06/12 06:56:27;;;;;;;;;;;16.70;76.90;;;;;;4982390;28;87927;-49
2021/06/12 06:58:53;;;;;;;;;;;16.70;76.90;;;;;;4982669;28;88229;-49
2021/06/12 07:01:19;;;;;;;;;;;16.70;77.00;;;;;;4980130;28;88974;-49
2021/06/12 07:03:44;;;;;;;;;;;16.70;77.00;;;;;;4979105;28;88404;-50
2021/06/12 07:06:10;;;;;;;;;;;16.70;77.00;;;;;;4978605;28;89611;-50
2021/06/12 07:08:35;;;;;;;;;;;16.70;77.00;;;;;;4983108;28;86548;-49
2021/06/12 07:11:01;;;;;;;;;;;16.70;77.00;;;;;;4979335;28;91199;-49
2021/06/12 07:13:26;;;;;;;;;;;16.70;77.00;;;;;;4982275;28;87149;-48
2021/06/12 07:15:52;;;;;;;;;;;16.70;77.10;;;;;;4981661;28;89745;-48
2021/06/12 07:18:18;;;;;;;;;;;16.70;77.00;;;;;;4979132;28;88842;-49
2021/06/12 07:20:46;;;;;;;;;;;16.80;77.10;;;;;;4979142;28;87141;-50
2021/06/12 07:23:13;;;;;;;;;;;16.80;77.10;;;;;;4982272;28;88821;-49
2021/06/12 07:25:38;;;;;;;;;;;16.80;77.20;;;;;;4981509;28;89192;-49
2021/06/12 07:28:04;;;;;;;;;;;16.70;77.20;;;;;;4984396;28;87150;-51
2021/06/12 07:30:34;;;;;;;;;;;16.80;77.20;;;;;;4981874;28;89538;-50
2021/06/12 07:33:00;;;;;;;;;;;16.80;77.20;;;;;;4983183;28;86481;-49
2021/06/12 07:35:25;;;;;;;;;;;16.80;77.20;;;;;;4980152;28;88486;-48
2021/06/12 07:37:51;;;;;;;;;;;16.80;77.20;;;;;;4977997;28;88675;-48
2021/06/12 07:40:16;;;;;;;;;;;16.80;77.20;;;;;;4978836;28;88132;-48
2021/06/12 07:42:42;;;;;;;;;;;16.80;77.20;;;;;;4980445;28;89816;-48
2021/06/12 07:45:08;;;;;;;;;;;16.80;77.30;;;;;;4979523;28;90062;-50
2021/06/12 07:47:33;;;;;;;;;;;16.80;77.20;;;;;;4978850;28;87152;-49
2021/06/12 07:49:59;;;;;;;;;;;16.80;77.20;;;;;;4982234;28;87125;-48
2021/06/12 07:52:24;;;;;;;;;;;16.80;77.10;;;;;;4980842;28;87200;-49
2021/06/12 07:54:50;;;;;;;;;;;16.80;77.20;;;;;;4981810;28;87627;-49
2021/06/12 07:57:15;;;;;;;;;;;16.90;77.10;;;;;;4981179;28;87144;-49
2021/06/12 07:59:41;;;;;;;;;;;16.90;77.10;;;;;;4977960;28;88758;-49
2021/06/12 08:02:07;;;;;;;;;;;16.90;77.10;;;;;;4978873;28;87123;-48
2021/06/12 08:04:32;;;;;;;;;;;16.90;77.10;;;;;;4978715;28;90536;-49
2021/06/12 08:06:58;;;;;;;;;;;16.90;77.00;;;;;;4980987;28;87234;-49
2021/06/12 08:09:24;;;;;;;;;;;16.90;77.00;;;;;;4982273;28;87325;-51
2021/06/12 08:11:50;;;;;;;;;;;16.90;77.10;;;;;;4983590;28;88226;-49
2021/06/12 08:14:15;;;;;;;;;;;16.90;77.30;;;;;;4979699;28;87260;-50
2021/06/12 08:16:41;;;;;;;;;;;16.90;77.20;;;;;;4977073;28;89665;-49
2021/06/12 08:19:06;;;;;;;;;;;16.90;77.20;;;;;;4977615;28;87250;-49
2021/06/12 08:21:32;;;;;;;;;;;16.90;77.20;;;;;;4978010;28;88682;-48
2021/06/12 08:23:57;;;;;;;;;;;16.90;77.20;;;;;;4977634;28;88065;-49
2021/06/12 08:26:23;;;;;;;;;;;17.00;77.20;;;;;;4977277;28;87146;-48
2021/06/12 08:28:50;;;;;;;;;;;16.90;77.10;;;;;;4977428;28;89604;-49
2021/06/12 08:31:15;;;;;;;;;;;16.90;77.20;;;;;;4981447;28;89693;-49
2021/06/12 08:33:41;;;;;;;;;;;16.90;77.20;;;;;;4983705;28;87222;-49
2021/06/12 08:36:07;;;;;;;;;;;16.90;77.20;;;;;;4979784;28;89021;-49
2021/06/12 08:38:32;;;;;;;;;;;16.90;77.20;;;;;;4980423;28;87112;-50
2021/06/12 08:40:58;;;;;;;;;;;16.90;77.30;;;;;;4980807;28;87908;-48
2021/06/12 08:43:26;;;;;;;;;;;16.90;77.20;;;;;;4981073;28;88859;-48
2021/06/12 08:45:53;;;;;;;;;;;16.90;77.30;;;;;;4979503;28;86478;-48
2021/06/12 08:48:19;;;;;;;;;;;16.90;77.30;;;;;;4978992;28;87207;-48
2021/06/12 08:50:45;;;;;;;;;;;17.00;77.40;;;;;;4978327;28;88249;-49
2021/06/12 08:53:11;;;;;;;;;;;17.00;77.40;;;;;;4977964;28;88100;-49
2021/06/12 08:55:36;;;;;;;;;;;17.00;77.40;;;;;;4982035;28;89199;-52
2021/06/12 08:58:02;;;;;;;;;;;16.90;77.40;;;;;;4980715;28;87129;-49
2021/06/12 09:00:27;;;;;;;;;;;17.00;77.40;;;;;;4981106;28;87897;-49
2021/06/12 09:03:12;;;;;;;;;;;17.00;77.50;;;;;;4980318;28;88741;-49
2021/06/12 09:05:49;;;;;;;;;;;17.00;77.40;;;;;;4978064;28;87157;-49
2021/06/12 09:08:17;;;;;;;;;;;17.00;77.40;;;;;;4977057;28;88951;-49
2021/06/12 09:10:45;;;;;;;;;;;17.00;77.40;;;;;;4981302;28;87569;-53
2021/06/12 09:13:11;;;;;;;;;;;17.10;77.40;;;;;;4978102;28;87121;-50
2021/06/12 09:15:36;;;;;;;;;;;17.10;77.30;;;;;;4980097;28;87450;-50
2021/06/12 09:18:02;;;;;;;;;;;17.10;77.30;;;;;;4976206;28;88062;-48
2021/06/12 09:20:27;;;;;;;;;;;17.10;77.30;;;;;;4978402;28;88425;-49
2021/06/12 09:23:06;;;;;;;;;;;17.20;77.20;;;;;;4980230;28;88438;-48
2021/06/12 09:25:36;;;;;;;;;;;17.20;77.20;;;;;;4978424;28;87213;-48
2021/06/12 09:28:01;;;;;;;;;;;17.20;77.20;;;;;;4980679;28;89031;-50
2021/06/12 09:30:29;;;;;;;;;;;17.20;77.30;;;;;;4979849;28;88145;-49
2021/06/12 09:32:54;;;;;;;;;;;17.20;77.40;;;;;;4979089;28;87142;-48
2021/06/12 09:35:28;;;;;;;;;;;17.20;77.40;;;;;;4981056;28;87337;-49
2021/06/12 09:37:54;;;;;;;;;;;17.10;77.50;;;;;;4980011;28;87495;-50
2021/06/12 09:40:22;;;;;;;;;;;17.20;77.50;;;;;;4978585;28;87681;-50
2021/06/12 09:42:52;;;;;;;;;;;17.20;77.60;;;;;;4974968;28;90124;-48
2021/06/12 09:45:22;;;;;;;;;;;17.10;77.50;;;;;;4977548;28;88343;-49
2021/06/12 09:47:48;;;;;;;;;;;17.10;77.60;;;;;;4977189;28;88875;-50
2021/06/12 09:50:14;;;;;;;;;;;17.20;77.60;;;;;;4977888;28;88236;-49
2021/06/12 09:52:42;;;;;;;;;;;17.20;77.60;;;;;;4978181;28;87115;-49
2021/06/12 09:55:08;;;;;;;;;;;17.10;77.70;;;;;;4976805;28;87458;-49
2021/06/12 09:57:44;;;;;;;;;;;17.20;77.70;;;;;;4976688;28;89711;-50
2021/06/12 10:00:10;;;;;;;;;;;17.20;77.70;;;;;;4980627;28;86478;-49
2021/06/12 10:02:40;;;;;;;;;;;17.20;77.70;;;;;;4976389;28;88612;-49
2021/06/12 10:05:07;;;;;;;;;;;17.10;77.70;;;;;;4977440;28;87204;-48
2021/06/12 10:07:33;;;;;;;;;;;17.20;77.70;;;;;;4975774;28;89225;-49
2021/06/12 10:10:00;;;;;;;;;;;17.20;78.30;;;;;;4976990;28;88061;-48
2021/06/12 10:12:26;;;;;;;;;;;17.20;77.70;;;;;;4975713;28;87181;-50
2021/06/12 10:14:52;;;;;;;;;;;17.20;77.80;;;;;;4976002;28;88579;-49
2021/06/12 10:17:19;;;;;;;;;;;17.30;77.90;;;;;;4975828;28;89139;-49
2021/06/12 10:19:45;;;;;;;;;;;17.30;77.70;;;;;;4979889;28;88061;-50
2021/06/12 10:22:14;;;;;;;;;;;17.30;77.60;;;;;;4981586;28;88620;-49
2021/06/12 10:24:40;;;;;;;;;;;17.40;77.80;;;;;;4977604;28;86413;-49
2021/06/12 10:27:06;;;;;;;;;;;17.40;77.70;;;;;;4977108;28;88296;-49
2021/06/12 10:29:33;;;;;;;;;;;17.40;77.70;;;;;;4977035;28;87851;-48
2021/06/12 10:31:59;;;;;;;;;;;17.40;77.80;;;;;;4977108;28;88113;-49
2021/06/12 10:34:28;;;;;;;;;;;17.40;77.90;;;;;;4977760;28;89712;-48
2021/06/12 10:37:02;;;;;;;;;;;17.40;78.00;;;;;;4978537;28;89742;-49
2021/06/12 10:39:29;;;;;;;;;;;17.40;78.00;;;;;;4976701;28;87112;-49
2021/06/12 10:42:13;;;;;;;;;;;17.40;78.10;;;;;;4976348;28;89159;-50
2021/06/12 10:44:40;;;;;;;;;;;17.40;78.10;;;;;;4979890;28;89373;-50
2021/06/12 10:47:05;;;;;;;;;;;17.40;78.10;;;;;;4978515;28;87800;-50
2021/06/12 10:49:34;;;;;;;;;;;17.40;78.10;;;;;;4982779;28;88132;-51
2021/06/12 10:51:59;;;;;;;;;;;17.50;78.20;;;;;;4980008;28;87145;-48
2021/06/12 10:54:28;;;;;;;;;;;17.50;78.00;;;;;;4979148;28;88283;-49
2021/06/12 10:56:56;;;;;;;;;;;17.50;77.90;;;;;;4980325;28;89110;-49
2021/06/12 10:59:31;;;;;;;;;;;17.50;77.80;;;;;;4982107;28;88094;-50
2021/06/12 11:02:02;;;;;;;;;;;17.50;77.90;;;;;;4979848;28;89396;-50
2021/06/12 11:04:53;;;;;;;;;;;17.50;77.90;;;;;;4982318;28;89789;-48
2021/06/12 11:07:27;;;;;;;;;;;17.50;78.00;;;;;;4986680;28;87191;-48
2021/06/12 11:09:54;;;;;;;;;;;17.60;78.00;;;;;;4981946;28;89603;-49
2021/06/12 11:12:19;;;;;;;;;;;17.60;78.30;;;;;;4981843;28;87161;-49
2021/06/12 11:14:55;;;;;;;;;;;17.60;77.50;;;;;;4982734;28;87567;-48
2021/06/12 11:17:21;;;;;;;;;;;17.60;77.50;;;;;;4981244;28;87895;-48
2021/06/12 11:19:48;;;;;;;;;;;17.70;77.20;;;;;;4981243;28;87199;-48
2021/06/12 11:22:33;;;;;;;;;;;17.70;77.40;;;;;;4978027;28;89308;-49
2021/06/12 11:25:01;;;;;;;;;;;17.70;77.40;;;;;;4979906;28;87145;-48
2021/06/12 11:27:31;;;;;;;;;;;17.70;77.30;;;;;;4985394;28;87142;-49
2021/06/12 11:30:15;;;;;;;;;;;17.70;77.20;;;;;;4981497;28;89508;-49
2021/06/12 11:32:42;;;;;;;;;;;17.70;77.10;;;;;;4978291;28;87149;-49
2021/06/12 11:35:08;;;;;;;;;;;17.70;77.20;;;;;;4980897;28;89019;-48
2021/06/12 11:37:33;;;;;;;;;;;17.70;77.30;;;;;;4978634;28;87995;-49
2021/06/12 11:40:02;;;;;;;;;;;17.70;77.20;;;;;;4980536;28;86687;-53
2021/06/12 11:42:45;;;;;;;;;;;17.70;77.00;;;;;;4978634;28;88174;-50
2021/06/12 11:45:21;;;;;;;;;;;17.70;77.10;;;;;;4981678;28;89101;-48
2021/06/12 11:47:47;;;;;;;;;;;17.80;76.70;;;;;;4981925;28;88202;-49
2021/06/12 11:50:12;;;;;;;;;;;17.70;77.00;;;;;;4984371;28;88703;-49
2021/06/12 11:52:42;;;;;;;;;;;17.80;77.10;;;;;;4980555;28;87144;-48
2021/06/12 11:55:21;;;;;;;;;;;17.80;77.10;;;;;;4980614;28;87847;-48
2021/06/12 11:57:48;;;;;;;;;;;17.80;77.10;;;;;;4981765;28;87670;-49
2021/06/12 12:00:46;;;;;;;;;;;17.80;76.40;;;;;;4980318;28;87130;-49
2021/06/12 12:03:13;;;;;;;;;;;17.80;77.00;;;;;;4988698;28;88936;-48
2021/06/12 12:05:40;;;;;;;;;;;17.80;76.50;;;;;;4980762;28;88692;-49
2021/06/12 12:08:07;;;;;;;;;;;17.90;76.70;;;;;;4978747;28;87244;-48
2021/06/12 12:10:33;;;;;;;;;;;17.90;76.70;;;;;;4979046;28;88987;-49
2021/06/12 12:12:59;;;;;;;;;;;17.90;77.00;;;;;;4982448;28;88940;-49
2021/06/12 12:15:57;;;;;;;;;;;17.90;76.50;;;;;;4981962;28;89978;-48
2021/06/12 12:18:22;;;;;;;;;;;18.00;77.00;;;;;;4987562;28;87728;-47
2021/06/12 12:20:49;;;;;;;;;;;18.00;77.00;;;;;;4977934;28;87166;-47
2021/06/12 12:23:23;;;;;;;;;;;18.50;68.10;;;;;;4981467;28;88755;-48
2021/06/12 12:25:51;;;;;;;;;;;18.80;65.70;;;;;;4978927;28;88669;-49
2021/06/12 12:28:24;;;;;;;;;;;18.80;68.00;;;;;;4978584;28;87125;-51
2021/06/12 12:30:50;;;;;;;;;;;18.60;68.90;;;;;;4981570;28;88872;-53
2021/06/12 12:33:17;;;;;;;;;;;18.50;69.40;;;;;;4980422;28;89455;-49
2021/06/12 12:35:43;;;;;;;;;;;18.50;70.50;;;;;;4981665;28;87116;-52
2021/06/12 12:38:11;;;;;;;;;;;18.40;71.10;;;;;;4976930;28;90684;-49
2021/06/12 12:40:37;;;;;;;;;;;18.40;71.90;;;;;;4980030;28;87161;-52
2021/06/12 12:43:03;;;;;;;;;;;18.40;72.60;;;;;;4979453;28;87155;-51
2021/06/12 12:45:28;;;;;;;;;;;18.40;72.60;;;;;;4977519;28;88164;-50
2021/06/12 12:47:54;;;;;;;;;;;18.40;72.20;;;;;;4978267;28;87112;-49
2021/06/12 12:50:21;;;;;;;;;;;18.40;72.50;;;;;;4977540;28;88574;-51
2021/06/12 12:53:02;;;;;;;;;;;18.40;72.40;;;;;;4977355;28;88737;-50
2021/06/12 12:55:27;;;;;;;;;;;18.40;72.30;;;;;;4977513;28;86403;-51
2021/06/12 12:57:53;;;;;;;;;;;18.40;72.60;;;;;;4980018;28;87147;-52
2021/06/12 13:00:20;;;;;;;;;;;18.40;72.90;;;;;;4977832;28;87137;-50
2021/06/12 13:02:50;;;;;;;;;;;18.50;72.30;;;;;;4979895;28;89075;-52
2021/06/12 13:05:16;;;;;;;;;;;18.50;72.10;;;;;;4976660;28;88727;-49
2021/06/12 13:07:41;;;;;;;;;;;18.50;72.30;;;;;;4975941;28;87101;-51
2021/06/12 13:10:09;;;;;;;;;;;18.50;72.10;;;;;;4980336;28;88484;-50
2021/06/12 13:12:35;;;;;;;;;;;18.50;72.40;;;;;;4978129;28;89310;-54
2021/06/12 13:15:03;;;;;;;;;;;18.50;72.90;;;;;;4977857;28;87157;-50
2021/06/12 13:17:29;;;;;;;;;;;18.50;72.80;;;;;;4979823;28;88515;-50
2021/06/12 13:19:59;;;;;;;;;;;18.50;73.20;;;;;;4983733;28;86879;-52
2021/06/12 13:22:25;;;;;;;;;;;18.50;72.70;;;;;;4977117;28;88535;-50
2021/06/12 13:25:00;;;;;;;;;;;18.50;72.90;;;;;;4975938;28;88268;-51
2021/06/12 13:27:31;;;;;;;;;;;18.50;73.20;;;;;;4976371;28;88903;-49
2021/06/12 13:29:57;;;;;;;;;;;18.50;72.90;;;;;;4980731;28;88519;-50
2021/06/12 13:32:29;;;;;;;;;;;18.60;73.00;;;;;;4979711;28;88450;-50
2021/06/12 13:34:56;;;;;;;;;;;18.60;73.20;;;;;;4977175;28;87290;-50
2021/06/12 13:37:21;;;;;;;;;;;18.50;73.50;;;;;;4980839;28;87828;-52
2021/06/12 13:39:51;;;;;;;;;;;18.60;73.30;;;;;;4983197;28;88344;-51
2021/06/12 13:42:19;;;;;;;;;;;18.50;73.20;;;;;;4980012;28;88544;-50
2021/06/12 13:45:03;;;;;;;;;;;18.60;73.80;;;;;;4977192;28;88640;-50
2021/06/12 13:47:29;;;;;;;;;;;18.60;73.80;;;;;;4978216;28;87332;-50
2021/06/12 13:49:54;;;;;;;;;;;18.60;74.00;;;;;;4978736;28;87231;-50
2021/06/12 13:52:20;;;;;;;;;;;18.50;73.50;;;;;;4977111;28;89185;-51
2021/06/12 13:54:45;;;;;;;;;;;18.60;74.10;;;;;;4977444;28;87165;-49
2021/06/12 13:57:11;;;;;;;;;;;18.60;74.40;;;;;;4976534;28;87231;-51
2021/06/12 13:59:36;;;;;;;;;;;18.60;74.40;;;;;;4975721;28;88140;-50
2021/06/12 14:02:02;;;;;;;;;;;18.60;74.50;;;;;;4979406;28;87161;-49
2021/06/12 14:04:27;;;;;;;;;;;18.60;74.80;;;;;;4975289;28;87850;-49
2021/06/12 14:06:53;;;;;;;;;;;18.60;74.90;;;;;;4977009;28;87760;-49
2021/06/12 14:09:18;;;;;;;;;;;18.60;75.00;;;;;;4976170;28;87149;-51
2021/06/12 14:11:44;;;;;;;;;;;18.60;75.10;;;;;;4976229;28;88105;-50
2021/06/12 14:14:10;;;;;;;;;;;18.60;75.10;;;;;;4976671;28;87149;-52
2021/06/12 14:16:35;;;;;;;;;;;18.60;75.10;;;;;;4976350;28;88106;-52